createdAt,value
2018-12-12T00:00:04.438Z,2.60
2018-12-12T00:02:36.967Z,2.73
2018-12-12T00:05:09.854Z,2.07
2018-12-12T00:07:42.672Z,2.60
2018-12-12T00:10:19.406Z,2.27
2018-12-12T00:12:52.257Z,2.40
2018-12-12T00:15:24.919Z,2.77
2018-12-12T00:17:59.645Z,2.47
2018-12-12T00:20:33.985Z,2.60
2018-12-12T00:23:06.984Z,2.37
2018-12-12T00:25:41.890Z,3.00
2018-12-12T00:28:14.612Z,2.60
2018-12-12T00:30:49.109Z,1.87
2018-12-12T00:33:21.840Z,2.40
2018-12-12T00:35:55.154Z,2.33
2018-12-12T00:38:28.213Z,2.57
2018-12-12T00:41:02.689Z,3.27
2018-12-12T00:43:35.578Z,2.33
2018-12-12T00:46:08.751Z,2.30
2018-12-12T00:48:41.887Z,2.60
2018-12-12T00:51:14.747Z,2.37
2018-12-12T00:53:47.172Z,2.33
2018-12-12T00:56:19.853Z,2.30
2018-12-12T00:58:53.040Z,2.70
2018-12-12T01:01:27.595Z,2.70
2018-12-12T01:04:00.612Z,2.13
2018-12-12T01:06:33.087Z,2.70
2018-12-12T01:09:06.819Z,2.53
2018-12-12T01:11:46.691Z,2.60
2018-12-12T01:14:21.046Z,2.40
2018-12-12T01:16:53.524Z,1.90
2018-12-12T01:19:26.225Z,2.50
2018-12-12T01:21:59.163Z,3.00
2018-12-12T01:24:32.720Z,2.77
2018-12-12T01:27:05.685Z,2.50
2018-12-12T01:29:38.712Z,2.87
2018-12-12T01:32:11.863Z,2.50
2018-12-12T01:34:44.659Z,3.10
2018-12-12T01:37:17.750Z,3.27
2018-12-12T01:39:50.794Z,2.77
2018-12-12T01:42:23.942Z,2.50
2018-12-12T01:44:56.775Z,2.57
2018-12-12T01:47:29.879Z,3.37
2018-12-12T01:50:04.347Z,2.87
2018-12-12T01:52:37.159Z,2.80
2018-12-12T01:55:09.814Z,3.00
2018-12-12T01:57:42.922Z,2.73
2018-12-12T02:00:16.862Z,2.63
2018-12-12T02:02:49.289Z,2.70
2018-12-12T02:05:22.031Z,2.70
2018-12-12T02:07:56.667Z,2.93
2018-12-12T02:10:29.522Z,2.80
2018-12-12T02:13:13.954Z,2.67
2018-12-12T02:15:47.896Z,2.63
2018-12-12T02:18:20.460Z,2.60
2018-12-12T02:20:53.640Z,2.50
2018-12-12T02:23:26.393Z,2.77
2018-12-12T02:25:59.484Z,2.80
2018-12-12T02:28:31.909Z,2.63
2018-12-12T02:31:04.561Z,3.13
2018-12-12T02:33:37.196Z,2.80
2018-12-12T02:36:09.712Z,3.20
2018-12-12T02:38:42.151Z,2.83
2018-12-12T02:41:14.681Z,3.23
2018-12-12T02:43:49.099Z,2.73
2018-12-12T02:46:22.197Z,2.60
2018-12-12T02:48:54.957Z,2.80
2018-12-12T02:51:27.708Z,3.10
2018-12-12T02:54:01.206Z,2.90
2018-12-12T02:56:33.680Z,2.90
2018-12-12T02:59:06.832Z,3.70
2018-12-12T03:01:39.975Z,2.93
2018-12-12T03:04:12.949Z,3.20
2018-12-12T03:06:46.071Z,3.20
2018-12-12T03:09:19.099Z,3.33
2018-12-12T03:11:51.549Z,3.23
2018-12-12T03:14:24.043Z,3.47
2018-12-12T03:16:56.472Z,3.30
2018-12-12T03:19:28.922Z,3.17
2018-12-12T03:22:01.519Z,2.83
2018-12-12T03:24:34.548Z,3.13
2018-12-12T03:27:07.036Z,2.90
2018-12-12T03:29:40.073Z,3.33
2018-12-12T03:32:13.022Z,3.20
2018-12-12T03:34:45.567Z,3.23
2018-12-12T03:38:21.627Z,2.90
2018-12-12T03:40:54.397Z,3.03
2018-12-12T03:43:27.002Z,3.20
2018-12-12T03:46:01.361Z,3.20
2018-12-12T03:48:34.919Z,3.30
2018-12-12T03:51:07.562Z,3.37
2018-12-12T03:53:40.196Z,3.30
2018-12-12T03:56:12.802Z,3.40
2018-12-12T03:58:46.563Z,3.93
2018-12-12T04:01:19.162Z,3.90
2018-12-12T04:03:52.107Z,3.33
2018-12-12T04:06:25.579Z,3.47
2018-12-12T04:08:58.023Z,4.00
2018-12-12T04:11:31.353Z,3.93
2018-12-12T04:14:04.687Z,3.77
2018-12-12T04:16:37.409Z,3.70
2018-12-12T04:19:10.145Z,4.30
2018-12-12T04:21:43.333Z,4.60
2018-12-12T04:24:15.770Z,4.70
2018-12-12T04:26:48.748Z,3.93
2018-12-12T04:29:23.056Z,4.57
2018-12-12T04:31:57.439Z,5.23
2018-12-12T04:34:30.262Z,5.57
2018-12-12T04:37:03.701Z,5.43
2018-12-12T04:39:37.641Z,5.47
2018-12-12T04:42:10.475Z,4.73
2018-12-12T04:44:43.260Z,5.17
2018-12-12T04:47:16.005Z,5.37
2018-12-12T04:49:49.296Z,5.37
2018-12-12T04:52:21.956Z,5.03
2018-12-12T04:54:54.355Z,4.77
2018-12-12T04:57:27.498Z,5.87
2018-12-12T05:00:00.303Z,5.87
2018-12-12T05:02:34.165Z,7.10
2018-12-12T05:05:07.631Z,8.97
2018-12-12T05:07:40.786Z,8.60
2018-12-12T05:10:13.825Z,8.37
2018-12-12T05:12:48.298Z,9.57
2018-12-12T05:15:21.739Z,9.30
2018-12-12T05:17:56.072Z,10.80
2018-12-12T05:20:28.540Z,9.60
2018-12-12T05:23:01.730Z,10.47
2018-12-12T05:25:34.832Z,9.77
2018-12-12T05:28:07.802Z,8.57
2018-12-12T05:30:40.920Z,9.37
2018-12-12T05:33:13.672Z,10.90
2018-12-12T05:35:46.790Z,9.10
2018-12-12T05:38:19.371Z,10.70
2018-12-12T05:40:52.884Z,10.87
2018-12-12T05:43:25.336Z,10.67
2018-12-12T05:45:58.147Z,9.93
2018-12-12T05:48:31.200Z,10.53
2018-12-12T05:51:04.057Z,11.03
2018-12-12T05:53:36.712Z,10.50
2018-12-12T05:56:14.078Z,9.80
2018-12-12T05:58:45.076Z,10.47
2018-12-12T06:01:17.811Z,10.93
2018-12-12T06:03:51.051Z,11.10
2018-12-12T06:06:23.602Z,10.50
2018-12-12T06:08:56.187Z,11.03
2018-12-12T06:11:28.644Z,10.83
2018-12-12T06:14:01.588Z,10.70
2018-12-12T06:16:34.040Z,10.37
2018-12-12T06:19:07.226Z,11.30
2018-12-12T06:21:40.499Z,11.00
2018-12-12T06:24:14.048Z,10.67
2018-12-12T06:26:48.359Z,10.40
2018-12-12T06:29:20.905Z,9.53
2018-12-12T06:31:53.643Z,8.27
2018-12-12T06:34:26.117Z,8.50
2018-12-12T06:36:58.615Z,8.43
2018-12-12T06:39:32.155Z,6.50
2018-12-12T06:42:05.305Z,6.47
2018-12-12T06:44:38.230Z,6.33
2018-12-12T06:47:11.167Z,6.30
2018-12-12T06:49:43.651Z,6.13
2018-12-12T06:52:17.140Z,6.47
2018-12-12T06:54:49.759Z,6.57
2018-12-12T06:57:22.640Z,5.97
2018-12-12T06:59:55.691Z,5.60
2018-12-12T07:02:28.773Z,5.37
2018-12-12T07:05:01.235Z,6.93
2018-12-12T07:07:34.025Z,6.47
2018-12-12T07:10:08.570Z,6.00
2018-12-12T07:12:41.311Z,5.83
2018-12-12T07:15:14.232Z,6.20
2018-12-12T07:17:48.657Z,5.97
2018-12-12T07:20:21.380Z,6.27
2018-12-12T07:22:53.953Z,6.63
2018-12-12T07:25:27.141Z,7.07
2018-12-12T07:27:59.600Z,6.30
2018-12-12T07:30:32.108Z,6.63
2018-12-12T07:33:04.792Z,5.87
2018-12-12T07:35:37.275Z,5.77
2018-12-12T07:38:09.958Z,5.83
2018-12-12T07:40:42.829Z,6.10
2018-12-12T07:43:15.716Z,5.70
2018-12-12T07:45:49.668Z,6.63
2018-12-12T07:48:22.996Z,6.40
2018-12-12T07:50:55.617Z,6.53
2018-12-12T07:53:29.014Z,6.53
2018-12-12T07:56:03.184Z,5.90
2018-12-12T07:58:35.700Z,6.50
2018-12-12T08:01:09.574Z,6.87
2018-12-12T08:03:42.815Z,6.40
2018-12-12T08:06:15.971Z,7.53
2018-12-12T08:08:48.481Z,3.97
2018-12-12T08:11:20.945Z,5.33
2018-12-12T08:13:53.434Z,6.50
2018-12-12T08:16:26.724Z,5.23
2018-12-12T08:18:59.612Z,6.13
2018-12-12T08:21:32.935Z,7.00
2018-12-12T08:24:07.202Z,6.73
2018-12-12T08:26:40.564Z,7.87
2018-12-12T08:29:13.169Z,6.70
2018-12-12T08:31:46.570Z,7.30
2018-12-12T08:34:19.534Z,7.70
2018-12-12T08:36:52.099Z,6.80
2018-12-12T08:39:25.313Z,6.50
2018-12-12T08:41:57.972Z,6.83
2018-12-12T08:44:31.447Z,6.73
2018-12-12T08:47:03.958Z,5.93
2018-12-12T08:49:37.214Z,7.50
2018-12-12T08:52:09.998Z,6.17
2018-12-12T08:54:42.512Z,6.87
2018-12-12T08:57:15.449Z,6.57
2018-12-12T08:59:48.028Z,7.93
2018-12-12T09:02:21.874Z,5.63
2018-12-12T09:04:54.583Z,6.33
2018-12-12T09:07:27.740Z,7.40
2018-12-12T09:10:00.621Z,5.10
2018-12-12T09:12:33.889Z,7.53
2018-12-12T09:15:07.282Z,6.20
2018-12-12T09:17:39.745Z,6.23
2018-12-12T09:20:13.076Z,6.07
2018-12-12T09:22:46.660Z,6.57
2018-12-12T09:25:20.086Z,6.33
2018-12-12T09:27:53.222Z,5.27
2018-12-12T09:30:25.776Z,6.43
2018-12-12T09:32:59.224Z,5.83
2018-12-12T09:35:31.854Z,6.17
2018-12-12T09:38:05.045Z,6.00
2018-12-12T09:40:38.896Z,6.07
2018-12-12T09:43:13.421Z,6.50
2018-12-12T09:45:48.130Z,6.20
2018-12-12T09:48:23.262Z,5.77
2018-12-12T09:50:57.143Z,5.90
2018-12-12T09:53:31.928Z,6.97
2018-12-12T09:56:05.806Z,5.77
2018-12-12T09:58:39.751Z,5.27
2018-12-12T10:01:13.103Z,5.87
2018-12-12T10:03:46.576Z,6.30
2018-12-12T10:06:19.806Z,5.50
2018-12-12T10:09:57.897Z,5.73
2018-12-12T10:12:33.026Z,5.30
2018-12-12T10:15:07.224Z,5.03
2018-12-12T10:17:40.180Z,5.50
2018-12-12T10:20:13.995Z,5.20
2018-12-12T10:22:52.091Z,4.67
2018-12-12T10:25:25.202Z,5.03
2018-12-12T10:27:58.711Z,5.10
2018-12-12T10:30:32.390Z,4.43
2018-12-12T10:33:06.729Z,4.60
2018-12-12T10:35:39.778Z,4.80
2018-12-12T10:38:12.802Z,4.50
2018-12-12T10:40:45.852Z,4.53
2018-12-12T10:43:19.301Z,4.90
2018-12-12T10:45:53.019Z,4.20
2018-12-12T10:48:26.400Z,4.17
2018-12-12T10:51:00.594Z,4.47
2018-12-12T10:53:36.745Z,3.70
2018-12-12T10:56:10.084Z,3.90
2018-12-12T10:58:42.922Z,4.13
2018-12-12T11:01:21.463Z,4.30
2018-12-12T11:03:55.984Z,3.00
2018-12-12T11:06:30.954Z,4.67
2018-12-12T11:09:05.844Z,4.60
2018-12-12T11:11:38.672Z,3.93
2018-12-12T11:14:12.762Z,3.87
2018-12-12T11:16:46.487Z,4.00
2018-12-12T11:19:19.574Z,3.90
2018-12-12T11:21:52.116Z,4.33
2018-12-12T11:24:25.016Z,4.30
2018-12-12T11:26:57.999Z,5.30
2018-12-12T11:29:30.682Z,5.10
2018-12-12T11:32:04.636Z,4.70
2018-12-12T11:34:38.474Z,4.80
2018-12-12T11:37:11.048Z,5.03
2018-12-12T11:39:43.907Z,4.93
2018-12-12T11:42:17.372Z,4.47
2018-12-12T11:44:50.554Z,4.77
2018-12-12T11:47:23.563Z,4.57
2018-12-12T11:49:57.260Z,5.53
2018-12-12T11:52:30.465Z,5.50
2018-12-12T11:55:03.723Z,4.83
2018-12-12T11:57:36.566Z,6.13
2018-12-12T12:00:10.410Z,6.33
2018-12-12T12:02:43.511Z,5.90
2018-12-12T12:05:17.494Z,5.70
2018-12-12T12:07:51.945Z,5.67
2018-12-12T12:10:25.084Z,5.50
2018-12-12T12:12:57.941Z,5.80
2018-12-12T12:15:31.624Z,6.43
2018-12-12T12:18:04.803Z,6.53
2018-12-12T12:20:38.431Z,6.07
2018-12-12T12:23:10.994Z,5.77
2018-12-12T12:25:44.528Z,6.13
2018-12-12T12:29:20.821Z,5.83
2018-12-12T12:31:54.713Z,6.40
2018-12-12T12:34:27.406Z,5.57
2018-12-12T12:37:01.945Z,5.70
2018-12-12T12:39:36.384Z,5.90
2018-12-12T12:42:09.838Z,5.83
2018-12-12T12:44:42.999Z,5.53
2018-12-12T12:47:15.657Z,4.87
2018-12-12T12:49:48.589Z,6.10
2018-12-12T12:52:21.814Z,6.63
2018-12-12T12:54:54.597Z,6.70
2018-12-12T12:57:28.515Z,6.03
2018-12-12T13:00:01.674Z,5.47
2018-12-12T13:02:34.576Z,8.80
2018-12-12T13:05:08.117Z,6.57
2018-12-12T13:07:41.013Z,6.13
2018-12-12T13:10:14.518Z,6.20
2018-12-12T13:12:49.372Z,5.77
2018-12-12T13:15:23.172Z,6.50
2018-12-12T13:17:56.779Z,6.33
2018-12-12T13:20:31.621Z,6.03
2018-12-12T13:23:04.872Z,6.90
2018-12-12T13:25:57.823Z,6.20
2018-12-12T13:28:31.732Z,8.57
2018-12-12T13:31:06.066Z,6.67
2018-12-12T13:33:39.776Z,5.80
2018-12-12T13:36:13.148Z,7.03
2018-12-12T13:38:45.895Z,6.73
2018-12-12T13:41:25.172Z,6.27
2018-12-12T13:44:03.501Z,6.43
2018-12-12T13:46:38.581Z,6.30
2018-12-12T13:49:12.151Z,7.33
2018-12-12T13:51:45.204Z,7.77
2018-12-12T13:54:18.594Z,7.30
2018-12-12T13:56:52.119Z,8.00
2018-12-12T13:59:25.326Z,8.10
2018-12-12T14:02:00.512Z,8.27
2018-12-12T14:04:34.328Z,8.17
2018-12-12T14:07:17.121Z,4.03
2018-12-12T14:09:50.218Z,8.57
2018-12-12T14:12:23.944Z,9.40
2018-12-12T14:14:57.018Z,9.63
2018-12-12T14:17:29.717Z,9.33
2018-12-12T14:20:03.188Z,9.70
2018-12-12T14:22:36.127Z,9.40
2018-12-12T14:25:11.037Z,8.57
2018-12-12T14:27:44.729Z,8.23
2018-12-12T14:30:20.411Z,9.83
2018-12-12T14:32:54.855Z,9.37
2018-12-12T14:35:27.776Z,9.57
2018-12-12T14:38:05.357Z,9.37
2018-12-12T14:40:38.192Z,9.50
2018-12-12T14:43:12.130Z,9.37
2018-12-12T14:45:45.950Z,8.97
2018-12-12T14:48:18.624Z,9.63
2018-12-12T14:50:51.491Z,8.80
2018-12-12T14:53:25.129Z,9.63
2018-12-12T14:55:57.801Z,9.97
2018-12-12T14:58:31.105Z,9.03
2018-12-12T15:01:04.096Z,9.50
2018-12-12T15:03:38.421Z,10.50
2018-12-12T15:06:12.057Z,10.93
2018-12-12T15:08:46.578Z,10.93
2018-12-12T15:11:20.006Z,11.63
2018-12-12T15:13:53.760Z,10.73
2018-12-12T15:16:27.206Z,11.20
2018-12-12T15:19:00.115Z,11.60
2018-12-12T15:21:34.551Z,11.33
2018-12-12T15:24:07.739Z,9.70
2018-12-12T15:26:40.851Z,11.60
2018-12-12T15:29:14.501Z,13.47
2018-12-12T15:31:48.236Z,21.07
2018-12-12T15:34:21.834Z,12.73
2018-12-12T15:36:55.570Z,12.43
2018-12-12T15:39:29.762Z,12.40
2018-12-12T15:42:02.693Z,13.40
2018-12-12T15:44:35.829Z,12.00
2018-12-12T15:47:10.719Z,12.17
2018-12-12T15:49:46.551Z,11.77
2018-12-12T15:52:19.968Z,11.73
2018-12-12T15:54:53.793Z,12.23
2018-12-12T15:57:27.287Z,12.73
2018-12-12T16:00:00.396Z,12.40
2018-12-12T16:02:33.737Z,11.90
2018-12-12T16:05:07.832Z,11.70
2018-12-12T16:07:42.279Z,11.53
2018-12-12T16:10:16.725Z,12.13
2018-12-12T16:12:50.672Z,11.83
2018-12-12T16:15:25.706Z,13.20
2018-12-12T16:18:00.326Z,13.70
2018-12-12T16:20:33.364Z,13.63
2018-12-12T16:23:08.760Z,12.70
2018-12-12T16:25:41.998Z,12.33
2018-12-12T16:28:16.424Z,12.07
2018-12-12T16:30:50.584Z,12.27
2018-12-12T16:33:23.624Z,12.13
2018-12-12T16:35:56.620Z,12.03
2018-12-12T16:38:29.708Z,11.70
2018-12-12T16:41:02.511Z,11.57
2018-12-12T16:43:37.152Z,12.30
2018-12-12T16:46:11.277Z,13.40
2018-12-12T16:48:45.524Z,13.77
2018-12-12T16:51:18.620Z,13.23
2018-12-12T16:53:52.757Z,13.63
2018-12-12T16:56:26.211Z,12.40
2018-12-12T16:59:01.201Z,13.77
2018-12-12T17:01:34.572Z,14.23
2018-12-12T17:04:09.708Z,13.27
2018-12-12T17:06:43.069Z,13.47
2018-12-12T17:09:18.766Z,13.27
2018-12-12T17:11:53.654Z,12.40
2018-12-12T17:14:28.985Z,13.20
2018-12-12T17:17:02.646Z,13.47
2018-12-12T17:19:36.186Z,12.27
2018-12-12T17:22:11.369Z,12.63
2018-12-12T17:24:44.771Z,12.37
2018-12-12T17:27:18.470Z,12.10
2018-12-12T17:29:51.610Z,12.77
2018-12-12T17:32:25.007Z,12.63
2018-12-12T17:34:57.951Z,17.43
2018-12-12T17:37:31.915Z,16.77
2018-12-12T17:40:05.529Z,16.33
2018-12-12T17:42:39.481Z,14.67
2018-12-12T17:45:13.005Z,15.90
2018-12-12T17:47:47.978Z,14.13
2018-12-12T17:50:21.332Z,13.50
2018-12-12T17:52:54.282Z,13.50
2018-12-12T17:55:29.501Z,12.90
2018-12-12T17:58:03.916Z,13.87
2018-12-12T18:00:37.536Z,13.03
2018-12-12T18:03:12.159Z,13.40
2018-12-12T18:05:45.621Z,12.67
2018-12-12T18:08:19.258Z,13.53
2018-12-12T18:10:52.711Z,13.90
2018-12-12T18:13:25.803Z,13.47
2018-12-12T18:15:58.775Z,13.87
2018-12-12T18:18:32.459Z,13.13
2018-12-12T18:21:06.167Z,14.07
2018-12-12T18:23:39.046Z,14.00
2018-12-12T18:26:12.800Z,13.90
2018-12-12T18:28:46.208Z,13.00
2018-12-12T18:31:19.707Z,13.53
2018-12-12T18:33:53.145Z,13.37
2018-12-12T18:36:27.637Z,13.30
2018-12-12T18:39:04.283Z,11.43
2018-12-12T18:41:40.066Z,13.03
2018-12-12T18:44:13.558Z,11.83
2018-12-12T18:46:48.044Z,13.20
2018-12-12T18:49:22.939Z,13.10
2018-12-12T18:51:56.349Z,12.60
2018-12-12T18:54:30.960Z,13.60
2018-12-12T18:57:04.647Z,13.10
2018-12-12T18:59:38.209Z,12.90
2018-12-12T19:02:11.638Z,12.77
2018-12-12T19:04:45.301Z,14.33
2018-12-12T19:07:20.722Z,13.23
2018-12-12T19:09:53.731Z,13.63
2018-12-12T19:12:27.104Z,13.57
2018-12-12T19:15:03.083Z,13.60
2018-12-12T19:17:36.745Z,12.90
2018-12-12T19:20:09.819Z,15.53
2018-12-12T19:22:43.281Z,14.13
2018-12-12T19:25:16.736Z,13.37
2018-12-12T19:27:49.972Z,14.27
2018-12-12T19:30:22.952Z,14.13
2018-12-12T19:32:55.594Z,13.33
2018-12-12T19:35:34.676Z,14.27
2018-12-12T19:38:04.238Z,14.20
2018-12-12T19:40:37.632Z,14.60
2018-12-12T19:43:10.658Z,14.13
2018-12-12T19:45:44.018Z,14.97
2018-12-12T19:48:17.907Z,13.80
2018-12-12T19:50:50.695Z,14.23
2018-12-12T19:53:24.259Z,14.03
2018-12-12T19:55:57.370Z,14.63
2018-12-12T19:58:30.267Z,14.73
2018-12-12T20:01:04.789Z,14.30
2018-12-12T20:03:39.344Z,14.20
2018-12-12T20:06:14.146Z,14.07
2018-12-12T20:08:46.853Z,14.63
2018-12-12T20:11:20.594Z,14.60
2018-12-12T20:13:53.297Z,14.03
2018-12-12T20:16:27.303Z,14.10
2018-12-12T20:19:00.293Z,13.27
2018-12-12T20:21:34.663Z,12.97
2018-12-12T20:24:09.259Z,14.17
2018-12-12T20:26:42.062Z,12.83
2018-12-12T20:29:16.111Z,15.20
2018-12-12T20:31:49.629Z,14.50
2018-12-12T20:34:24.297Z,13.60
2018-12-12T20:36:57.723Z,14.07
2018-12-12T20:39:31.062Z,12.83
2018-12-12T20:42:06.401Z,13.73
2018-12-12T20:44:39.674Z,14.73
2018-12-12T20:47:12.437Z,14.23
2018-12-12T20:49:45.925Z,13.87
2018-12-12T20:52:20.742Z,14.27
2018-12-12T20:54:55.662Z,13.30
2018-12-12T20:57:29.807Z,13.83
2018-12-12T21:00:03.331Z,13.63
2018-12-12T21:02:36.272Z,14.50
2018-12-12T21:05:10.036Z,13.70
2018-12-12T21:07:44.061Z,13.47
2018-12-12T21:10:17.408Z,14.23
2018-12-12T21:12:50.486Z,13.90
2018-12-12T21:15:23.407Z,14.13
2018-12-12T21:17:55.926Z,14.37
2018-12-12T21:20:29.525Z,13.07
2018-12-12T21:23:02.494Z,13.13
2018-12-12T21:25:35.774Z,12.63
2018-12-12T21:28:08.890Z,13.80
2018-12-12T21:30:41.324Z,13.17
2018-12-12T21:33:14.755Z,12.97
2018-12-12T21:35:48.519Z,12.63
2018-12-12T21:38:21.398Z,13.00
2018-12-12T21:40:54.485Z,12.73
2018-12-12T21:43:27.827Z,14.53
2018-12-12T21:46:01.315Z,13.40
2018-12-12T21:48:34.933Z,13.67
2018-12-12T21:51:07.972Z,13.80
2018-12-12T21:53:40.707Z,13.83
2018-12-12T21:56:14.126Z,12.83
2018-12-12T21:58:47.289Z,13.20
2018-12-12T22:01:20.959Z,11.57
2018-12-12T22:03:55.285Z,12.63
2018-12-12T22:06:29.841Z,13.10
2018-12-12T22:09:04.603Z,13.03
2018-12-12T22:11:37.673Z,13.37
2018-12-12T22:14:10.893Z,13.63
2018-12-12T22:16:44.628Z,12.20
2018-12-12T22:19:17.860Z,11.93
2018-12-12T22:21:51.905Z,13.73
2018-12-12T22:24:26.579Z,12.13
2018-12-12T22:27:00.865Z,12.50
2018-12-12T22:29:35.506Z,12.57
2018-12-12T22:32:10.091Z,11.53
2018-12-12T22:34:44.013Z,11.80
2018-12-12T22:37:18.485Z,11.80
2018-12-12T22:39:52.960Z,11.93
2018-12-12T22:42:27.750Z,11.60
2018-12-12T22:45:02.124Z,11.07
2018-12-12T22:47:35.506Z,12.50
2018-12-12T22:50:09.181Z,12.27
2018-12-12T22:52:42.707Z,11.70
2018-12-12T22:55:16.609Z,11.60
2018-12-12T22:57:51.237Z,11.50
2018-12-12T23:00:32.728Z,11.80
2018-12-12T23:03:06.900Z,12.00
2018-12-12T23:05:39.613Z,10.37
2018-12-12T23:08:14.315Z,11.73
2018-12-12T23:10:47.334Z,11.67
2018-12-12T23:13:20.277Z,12.43
2018-12-12T23:15:56.349Z,11.90
2018-12-12T23:18:33.004Z,11.53
2018-12-12T23:21:06.548Z,11.50
2018-12-12T23:23:40.828Z,11.53
2018-12-12T23:26:13.722Z,10.60
2018-12-12T23:28:46.637Z,10.40
2018-12-12T23:31:21.651Z,10.53
2018-12-12T23:33:54.286Z,10.60
2018-12-12T23:36:28.425Z,10.10
2018-12-12T23:39:01.339Z,10.37
2018-12-12T23:41:35.002Z,11.10
2018-12-12T23:44:07.826Z,11.10
2018-12-12T23:46:41.751Z,11.30
2018-12-12T23:49:15.143Z,10.27
2018-12-12T23:51:50.174Z,11.37
2018-12-12T23:54:23.670Z,12.50
2018-12-12T23:56:56.829Z,11.90
2018-12-12T23:59:29.986Z,11.83
